createdAt,value
2018-09-18T00:00:51.488Z,21.97
2018-09-18T00:03:19.727Z,21.13
2018-09-18T00:05:48.019Z,24.87
2018-09-18T00:08:16.389Z,20.70
2018-09-18T00:10:44.660Z,21.40
2018-09-18T00:13:13.026Z,20.47
2018-09-18T00:15:41.274Z,20.60
2018-09-18T00:18:09.680Z,19.70
2018-09-18T00:20:37.936Z,20.40
2018-09-18T00:23:06.235Z,20.20
2018-09-18T00:25:35.245Z,21.93
2018-09-18T00:28:03.718Z,19.40
2018-09-18T00:30:31.998Z,22.33
2018-09-18T00:33:00.314Z,21.57
2018-09-18T00:35:28.772Z,19.90
2018-09-18T00:37:57.384Z,22.13
2018-09-18T00:40:25.679Z,20.43
2018-09-18T00:42:54.132Z,21.10
2018-09-18T00:45:22.503Z,20.40
2018-09-18T00:47:50.760Z,21.10
2018-09-18T00:50:19.105Z,22.63
2018-09-18T00:52:47.400Z,21.90
2018-09-18T00:55:15.635Z,20.70
2018-09-18T00:57:43.942Z,24.10
2018-09-18T01:00:12.765Z,19.57
2018-09-18T01:02:40.985Z,19.80
2018-09-18T01:05:09.240Z,20.20
2018-09-18T01:07:37.482Z,21.10
2018-09-18T01:10:05.729Z,20.23
2018-09-18T01:12:34.014Z,20.97
2018-09-18T01:15:02.290Z,19.60
2018-09-18T01:17:30.670Z,19.87
2018-09-18T01:19:58.954Z,20.17
2018-09-18T01:22:27.337Z,19.13
2018-09-18T01:24:55.725Z,21.17
2018-09-18T01:27:24.060Z,21.23
2018-09-18T01:29:52.251Z,24.00
2018-09-18T01:32:20.562Z,20.70
2018-09-18T01:34:48.886Z,20.93
2018-09-18T01:37:17.112Z,21.90
2018-09-18T01:39:45.365Z,22.13
2018-09-18T01:42:13.686Z,21.30
2018-09-18T01:44:41.957Z,21.10
2018-09-18T01:47:10.151Z,22.30
2018-09-18T01:49:38.401Z,19.57
2018-09-18T01:52:06.645Z,23.33
2018-09-18T01:54:35.214Z,21.57
2018-09-18T01:57:03.622Z,20.97
2018-09-18T01:59:31.906Z,19.67
2018-09-18T02:02:00.145Z,20.30
2018-09-18T02:04:28.614Z,22.27
2018-09-18T02:06:56.819Z,20.87
2018-09-18T02:09:25.099Z,23.80
2018-09-18T02:11:53.411Z,23.13
2018-09-18T02:14:21.651Z,24.67
2018-09-18T02:16:49.937Z,22.63
2018-09-18T02:19:18.289Z,21.57
2018-09-18T02:21:46.545Z,22.60
2018-09-18T02:24:14.793Z,24.63
2018-09-18T02:26:43.073Z,20.90
2018-09-18T02:29:11.284Z,24.00
2018-09-18T02:31:39.517Z,22.30
2018-09-18T02:34:07.768Z,23.23
2018-09-18T02:36:36.090Z,21.77
2018-09-18T02:39:06.797Z,24.33
2018-09-18T02:41:35.115Z,22.43
2018-09-18T02:44:03.347Z,23.80
2018-09-18T02:46:31.629Z,23.90
2018-09-18T02:48:59.914Z,22.80
2018-09-18T02:51:28.237Z,24.67
2018-09-18T02:53:56.416Z,25.43
2018-09-18T02:56:24.672Z,25.67
2018-09-18T02:58:52.871Z,25.67
2018-09-18T03:01:21.061Z,25.03
2018-09-18T03:03:49.288Z,27.57
2018-09-18T03:06:17.475Z,26.47
2018-09-18T03:08:45.727Z,25.80
2018-09-18T03:11:13.986Z,23.50
2018-09-18T03:13:42.219Z,26.73
2018-09-18T03:16:10.442Z,25.07
2018-09-18T03:18:38.648Z,27.13
2018-09-18T03:21:07.299Z,27.23
2018-09-18T03:23:35.492Z,25.57
2018-09-18T03:26:03.799Z,25.13
2018-09-18T03:28:32.067Z,25.73
2018-09-18T03:31:00.261Z,23.80
2018-09-18T03:33:28.499Z,23.83
2018-09-18T03:35:56.799Z,24.40
2018-09-18T03:38:25.029Z,21.43
2018-09-18T03:40:53.411Z,21.93
2018-09-18T03:43:21.607Z,23.47
2018-09-18T03:45:49.847Z,25.80
2018-09-18T03:48:18.088Z,24.40
2018-09-18T03:50:46.263Z,23.87
2018-09-18T03:53:14.433Z,21.63
2018-09-18T03:55:42.713Z,24.10
2018-09-18T03:58:10.916Z,20.70
2018-09-18T04:00:39.155Z,21.23
2018-09-18T04:03:07.423Z,23.50
2018-09-18T04:05:35.651Z,22.07
2018-09-18T04:08:03.884Z,24.37
2018-09-18T04:10:32.122Z,21.60
2018-09-18T04:13:00.359Z,22.60
2018-09-18T04:15:28.564Z,22.43
2018-09-18T04:17:57.251Z,26.00
2018-09-18T04:20:25.530Z,25.00
2018-09-18T04:22:53.804Z,23.37
2018-09-18T04:25:22.100Z,25.80
2018-09-18T04:27:50.384Z,24.10
2018-09-18T04:30:18.597Z,26.30
2018-09-18T04:32:46.927Z,25.53
2018-09-18T04:35:15.113Z,25.47
2018-09-18T04:37:43.381Z,25.80
2018-09-18T04:40:11.741Z,25.57
2018-09-18T04:42:40.147Z,25.57
2018-09-18T04:45:08.373Z,29.10
2018-09-18T04:47:36.834Z,24.83
2018-09-18T04:50:05.007Z,25.03
2018-09-18T04:52:33.288Z,28.47
2018-09-18T04:55:01.674Z,26.93
2018-09-18T04:57:29.939Z,30.53
2018-09-18T04:59:58.185Z,27.63
2018-09-18T05:02:26.341Z,27.70
2018-09-18T05:04:54.609Z,29.27
2018-09-18T05:07:22.987Z,30.60
2018-09-18T05:09:51.336Z,28.87
2018-09-18T05:12:19.727Z,27.60
2018-09-18T05:14:48.279Z,31.07
2018-09-18T05:17:16.589Z,31.80
2018-09-18T05:19:44.799Z,29.10
2018-09-18T05:22:13.266Z,30.47
2018-09-18T05:24:41.600Z,32.93
2018-09-18T05:27:09.813Z,32.20
2018-09-18T05:29:38.083Z,34.00
2018-09-18T05:32:06.378Z,30.83
2018-09-18T05:34:34.676Z,32.93
2018-09-18T05:37:03.117Z,29.63
2018-09-18T05:39:31.302Z,32.67
2018-09-18T05:41:59.567Z,32.10
2018-09-18T05:44:27.835Z,31.83
2018-09-18T05:46:55.991Z,32.63
2018-09-18T05:49:25.747Z,31.47
2018-09-18T05:51:54.117Z,31.83
2018-09-18T05:54:22.330Z,33.80
2018-09-18T05:56:50.594Z,35.57
2018-09-18T05:59:21.844Z,31.93
2018-09-18T06:01:50.251Z,30.70
2018-09-18T06:04:18.497Z,31.37
2018-09-18T06:06:46.791Z,32.77
2018-09-18T06:09:15.031Z,32.87
2018-09-18T06:11:43.291Z,31.43
2018-09-18T06:14:11.569Z,31.63
2018-09-18T06:16:40.033Z,28.30
2018-09-18T06:19:08.355Z,31.03
2018-09-18T06:21:36.571Z,29.67
2018-09-18T06:24:04.810Z,28.47
2018-09-18T06:26:33.036Z,34.23
2018-09-18T06:29:01.302Z,28.80
2018-09-18T06:31:29.538Z,28.97
2018-09-18T06:33:57.757Z,29.23
2018-09-18T06:36:26.040Z,31.67
2018-09-18T06:38:54.299Z,31.37
2018-09-18T06:41:22.476Z,32.17
2018-09-18T06:43:51.118Z,32.97
2018-09-18T06:46:19.438Z,29.47
2018-09-18T06:48:47.644Z,35.47
2018-09-18T06:51:15.989Z,35.63
2018-09-18T06:53:44.200Z,28.30
2018-09-18T06:56:12.425Z,29.20
2018-09-18T06:58:40.656Z,33.40
2018-09-18T07:01:09.005Z,30.30
2018-09-18T07:03:37.240Z,28.37
2018-09-18T07:06:05.619Z,28.93
2018-09-18T07:08:34.054Z,28.13
2018-09-18T07:11:04.624Z,28.40
2018-09-18T07:13:32.979Z,26.80
2018-09-18T07:16:01.244Z,31.70
2018-09-18T07:18:29.438Z,23.37
2018-09-18T07:20:57.698Z,30.50
2018-09-18T07:23:25.961Z,28.07
2018-09-18T07:25:54.108Z,30.23
2018-09-18T07:28:22.379Z,30.93
2018-09-18T07:30:50.766Z,33.83
2018-09-18T07:33:19.018Z,31.50
2018-09-18T07:35:47.343Z,31.33
2018-09-18T07:38:15.514Z,25.37
2018-09-18T07:40:43.686Z,25.37
2018-09-18T07:43:12.076Z,24.37
2018-09-18T07:45:40.264Z,27.43
2018-09-18T07:48:08.427Z,28.83
2018-09-18T07:50:36.772Z,25.93
2018-09-18T07:53:05.112Z,26.37
2018-09-18T07:55:33.255Z,25.53
2018-09-18T07:58:01.483Z,26.83
2018-09-18T08:00:29.674Z,25.03
2018-09-18T08:02:57.976Z,23.17
2018-09-18T08:05:26.259Z,23.40
2018-09-18T08:07:54.479Z,21.23
2018-09-18T08:10:22.677Z,21.97
2018-09-18T08:12:51.001Z,21.90
2018-09-18T08:15:19.239Z,25.43
2018-09-18T08:17:47.479Z,24.93
2018-09-18T08:20:15.751Z,22.37
2018-09-18T08:22:44.284Z,21.97
2018-09-18T08:25:12.621Z,25.93
2018-09-18T08:30:15.754Z,16.33
2018-09-18T08:32:44.143Z,13.10
2018-09-18T08:35:12.266Z,14.17
2018-09-18T08:37:40.541Z,13.90
2018-09-18T08:40:08.889Z,12.37
2018-09-18T08:42:37.108Z,11.57
2018-09-18T08:45:05.479Z,11.10
2018-09-18T08:47:33.699Z,14.43
2018-09-18T08:50:01.954Z,10.43
2018-09-18T08:52:30.235Z,10.57
2018-09-18T08:54:58.613Z,10.33
2018-09-18T08:57:26.835Z,9.53
2018-09-18T08:59:55.106Z,11.50
2018-09-18T09:02:23.343Z,11.10
2018-09-18T09:04:51.594Z,11.90
2018-09-18T09:07:19.888Z,11.13
2018-09-18T09:09:48.186Z,10.30
2018-09-18T09:12:16.444Z,10.43
2018-09-18T09:14:44.671Z,9.90
2018-09-18T09:17:12.852Z,13.57
2018-09-18T09:19:41.239Z,12.37
2018-09-18T09:22:09.607Z,9.70
2018-09-18T09:24:37.692Z,9.40
2018-09-18T09:27:05.997Z,9.13
2018-09-18T09:29:34.341Z,9.00
2018-09-18T09:32:02.626Z,16.97
2018-09-18T09:34:31.958Z,11.63
2018-09-18T09:37:00.271Z,8.33
2018-09-18T09:39:28.487Z,9.57
2018-09-18T09:41:56.775Z,8.23
2018-09-18T09:44:25.007Z,9.40
2018-09-18T09:46:53.327Z,10.43
2018-09-18T09:49:21.588Z,8.17
2018-09-18T09:51:49.975Z,9.60
2018-09-18T09:54:18.342Z,12.97
2018-09-18T09:56:46.624Z,10.60
2018-09-18T09:59:14.867Z,11.17
2018-09-18T10:01:43.775Z,12.87
2018-09-18T10:04:12.076Z,10.60
2018-09-18T10:06:40.289Z,8.30
2018-09-18T10:09:09.883Z,9.73
2018-09-18T10:11:38.118Z,10.80
2018-09-18T10:14:06.485Z,9.73
2018-09-18T10:16:34.744Z,8.10
2018-09-18T10:19:02.932Z,7.37
2018-09-18T10:21:31.127Z,8.27
2018-09-18T10:23:59.500Z,8.10
2018-09-18T10:26:27.874Z,9.23
2018-09-18T10:28:55.947Z,7.60
2018-09-18T10:31:24.248Z,9.07
2018-09-18T10:33:52.510Z,8.80
2018-09-18T10:36:20.780Z,12.10
2018-09-18T10:38:49.186Z,10.40
2018-09-18T10:41:17.597Z,7.80
2018-09-18T10:43:45.738Z,7.47
2018-09-18T10:46:14.081Z,7.93
2018-09-18T10:48:46.487Z,7.27
2018-09-18T10:51:14.763Z,7.70
2018-09-18T10:53:42.933Z,16.73
2018-09-18T10:56:11.281Z,7.73
2018-09-18T10:58:39.588Z,17.30
2018-09-18T11:01:08.142Z,10.57
2018-09-18T11:03:36.417Z,10.00
2018-09-18T11:06:04.784Z,9.33
2018-09-18T11:08:33.221Z,7.80
2018-09-18T11:11:01.488Z,7.33
2018-09-18T11:13:29.730Z,8.53
2018-09-18T11:15:58.072Z,7.57
2018-09-18T11:18:26.382Z,8.67
2018-09-18T11:20:54.648Z,9.57
2018-09-18T11:23:23.192Z,10.53
2018-09-18T11:25:51.462Z,7.07
2018-09-18T11:28:19.795Z,10.43
2018-09-18T11:30:48.136Z,6.97
2018-09-18T11:33:16.555Z,8.00
2018-09-18T11:35:44.979Z,6.47
2018-09-18T11:38:13.416Z,7.27
2018-09-18T11:40:41.679Z,5.47
2018-09-18T11:43:09.980Z,6.63
2018-09-18T11:45:38.255Z,5.83
2018-09-18T11:48:06.505Z,5.43
2018-09-18T11:50:34.840Z,5.60
2018-09-18T11:53:03.127Z,10.80
2018-09-18T11:55:31.432Z,5.80
2018-09-18T11:57:59.845Z,6.27
2018-09-18T12:00:28.094Z,6.10
2018-09-18T12:02:56.365Z,5.03
2018-09-18T12:05:24.646Z,7.60
2018-09-18T12:07:52.855Z,8.07
2018-09-18T12:10:21.399Z,5.53
2018-09-18T12:12:49.717Z,6.07
2018-09-18T12:15:18.063Z,7.07
2018-09-18T12:17:46.728Z,7.60
2018-09-18T12:20:15.163Z,5.40
2018-09-18T12:22:43.843Z,8.17
2018-09-18T12:25:12.035Z,5.33
2018-09-18T12:27:40.409Z,5.83
2018-09-18T12:30:08.833Z,7.83
2018-09-18T12:32:37.427Z,7.57
2018-09-18T12:35:05.767Z,5.60
2018-09-18T12:37:34.023Z,8.60
2018-09-18T12:40:02.280Z,6.57
2018-09-18T12:42:30.781Z,5.40
2018-09-18T12:44:58.933Z,6.63
2018-09-18T12:47:28.838Z,7.83
2018-09-18T12:49:59.129Z,6.87
2018-09-18T12:52:27.602Z,7.30
2018-09-18T12:54:56.102Z,5.53
2018-09-18T12:57:24.933Z,5.90
2018-09-18T12:59:53.247Z,7.80
2018-09-18T13:02:21.597Z,6.63
2018-09-18T13:04:50.036Z,5.90
2018-09-18T13:07:18.332Z,9.60
2018-09-18T13:09:46.688Z,5.40
2018-09-18T13:12:15.001Z,6.63
2018-09-18T13:14:43.452Z,5.53
2018-09-18T13:17:11.842Z,5.57
2018-09-18T13:19:40.032Z,6.53
2018-09-18T13:22:08.377Z,6.40
2018-09-18T13:24:36.803Z,4.60
2018-09-18T13:27:05.097Z,5.07
2018-09-18T13:29:33.614Z,5.60
2018-09-18T13:32:01.909Z,9.27
2018-09-18T13:34:30.305Z,6.00
2018-09-18T13:36:58.609Z,5.87
2018-09-18T13:39:26.905Z,5.23
2018-09-18T13:41:55.205Z,5.10
2018-09-18T13:44:23.432Z,6.40
2018-09-18T13:46:53.977Z,4.77
2018-09-18T13:49:22.457Z,4.33
2018-09-18T13:51:51.412Z,4.87
2018-09-18T13:54:19.846Z,6.60
2018-09-18T13:56:48.333Z,4.83
2018-09-18T13:59:16.657Z,6.90
2018-09-18T14:01:45.017Z,4.57
2018-09-18T14:04:13.437Z,6.40
2018-09-18T14:06:41.826Z,4.30
2018-09-18T14:09:10.300Z,4.57
2018-09-18T14:11:38.765Z,4.93
2018-09-18T14:14:10.273Z,6.10
2018-09-18T14:16:38.625Z,4.87
2018-09-18T14:19:07.132Z,5.07
2018-09-18T14:21:35.596Z,6.10
2018-09-18T14:24:03.884Z,4.97
2018-09-18T14:26:33.486Z,5.43
2018-09-18T14:29:01.642Z,5.20
2018-09-18T14:31:33.316Z,5.20
2018-09-18T14:34:04.794Z,4.20
2018-09-18T14:36:33.177Z,4.23
2018-09-18T14:39:01.623Z,5.63
2018-09-18T14:41:31.827Z,5.43
2018-09-18T14:44:00.161Z,4.23
2018-09-18T14:46:28.537Z,5.33
2018-09-18T14:48:56.822Z,5.90
2018-09-18T14:51:26.176Z,4.97
2018-09-18T14:53:54.421Z,6.70
2018-09-18T14:56:22.669Z,6.30
2018-09-18T14:58:51.779Z,5.13
2018-09-18T15:01:20.385Z,5.20
2018-09-18T15:03:52.074Z,4.40
2018-09-18T15:06:20.532Z,5.53
2018-09-18T15:08:48.847Z,5.37
2018-09-18T15:11:20.670Z,5.30
2018-09-18T15:13:49.085Z,6.70
2018-09-18T15:16:17.368Z,4.83
2018-09-18T15:18:45.722Z,6.53
2018-09-18T15:21:13.978Z,5.30
2018-09-18T15:23:42.265Z,4.20
2018-09-18T15:26:10.660Z,4.70
2018-09-18T15:28:39.198Z,4.00
2018-09-18T15:31:10.530Z,5.87
2018-09-18T15:33:38.816Z,5.57
2018-09-18T15:36:07.128Z,4.60
2018-09-18T15:38:35.507Z,5.90
2018-09-18T15:41:03.899Z,4.73
2018-09-18T15:43:32.182Z,7.80
2018-09-18T15:46:00.539Z,5.40
2018-09-18T15:48:28.771Z,6.70
2018-09-18T15:50:57.035Z,5.00
2018-09-18T15:53:25.350Z,4.70
2018-09-18T15:55:53.727Z,4.97
2018-09-18T15:58:21.937Z,5.13
2018-09-18T16:00:50.246Z,6.57
2018-09-18T16:03:18.537Z,4.77
2018-09-18T16:05:46.934Z,5.73
2018-09-18T16:08:15.225Z,6.87
2018-09-18T16:10:43.552Z,7.47
2018-09-18T16:13:11.806Z,8.33
2018-09-18T16:15:40.303Z,5.70
2018-09-18T16:18:08.537Z,8.00
2018-09-18T16:20:36.872Z,13.07
2018-09-18T16:23:05.220Z,14.47
2018-09-18T16:25:33.538Z,11.57
2018-09-18T16:28:01.811Z,13.80
2018-09-18T16:30:30.190Z,10.97
2018-09-18T16:32:58.526Z,10.50
2018-09-18T16:35:26.786Z,8.53
2018-09-18T16:37:55.279Z,8.53
2018-09-18T16:40:23.636Z,8.20
2018-09-18T16:42:51.973Z,6.60
2018-09-18T16:45:20.474Z,6.83
2018-09-18T16:47:48.762Z,6.17
2018-09-18T16:50:18.168Z,5.60
2018-09-18T16:52:46.494Z,6.33
2018-09-18T16:55:14.899Z,6.53
2018-09-18T16:57:43.173Z,6.90
2018-09-18T17:00:11.445Z,8.67
2018-09-18T17:02:39.830Z,8.40
2018-09-18T17:05:07.986Z,10.73
2018-09-18T17:07:36.280Z,8.30
2018-09-18T17:10:04.672Z,8.17
2018-09-18T17:12:33.097Z,12.80
2018-09-18T17:15:02.015Z,10.77
2018-09-18T17:17:30.462Z,10.50
2018-09-18T17:19:58.913Z,15.67
2018-09-18T17:22:27.228Z,10.97
2018-09-18T17:24:55.504Z,11.73
2018-09-18T17:27:23.881Z,11.93
2018-09-18T17:29:52.158Z,11.03
2018-09-18T17:32:20.516Z,10.10
2018-09-18T17:34:48.873Z,9.67
2018-09-18T17:37:17.246Z,8.73
2018-09-18T17:39:45.557Z,8.73
2018-09-18T17:42:14.061Z,9.13
2018-09-18T17:44:42.669Z,9.63
2018-09-18T17:47:11.077Z,7.77
2018-09-18T17:49:39.691Z,8.40
2018-09-18T17:52:20.352Z,6.67
2018-09-18T17:54:48.604Z,6.17
2018-09-18T17:57:16.934Z,6.43
2018-09-18T17:59:45.435Z,6.50
2018-09-18T18:02:14.046Z,7.53
2018-09-18T18:04:43.642Z,7.03
2018-09-18T18:07:11.802Z,7.07
2018-09-18T18:09:40.220Z,8.57
2018-09-18T18:12:08.637Z,7.50
2018-09-18T18:14:37.193Z,10.60
2018-09-18T18:17:05.781Z,9.47
2018-09-18T18:19:35.443Z,9.80
2018-09-18T18:22:03.794Z,7.67
2018-09-18T18:24:32.118Z,7.67
2018-09-18T18:27:00.474Z,9.27
2018-09-18T18:29:29.077Z,7.23
2018-09-18T18:31:57.428Z,7.77
2018-09-18T18:34:29.061Z,7.30
2018-09-18T18:36:57.513Z,7.07
2018-09-18T18:39:25.940Z,7.03
2018-09-18T18:41:54.265Z,6.37
2018-09-18T18:44:22.678Z,7.10
2018-09-18T18:46:51.625Z,8.67
2018-09-18T18:49:19.999Z,6.50
2018-09-18T18:51:48.553Z,7.07
2018-09-18T18:54:16.884Z,10.10
2018-09-18T18:56:45.295Z,9.27
2018-09-18T18:59:13.506Z,9.13
2018-09-18T19:01:42.187Z,8.80
2018-09-18T19:04:16.665Z,8.47
2018-09-18T19:06:46.523Z,6.90
2018-09-18T19:09:14.662Z,7.23
2018-09-18T19:11:43.039Z,7.93
2018-09-18T19:14:14.579Z,12.70
2018-09-18T19:16:44.722Z,9.47
2018-09-18T19:19:13.082Z,6.50
2018-09-18T19:21:41.411Z,7.10
2018-09-18T19:24:09.828Z,6.27
2018-09-18T19:26:38.378Z,5.97
2018-09-18T19:29:06.691Z,7.90
2018-09-18T19:31:35.436Z,8.43
2018-09-18T19:34:03.892Z,9.13
2018-09-18T19:36:32.343Z,7.17
2018-09-18T19:39:00.785Z,8.30
2018-09-18T19:41:29.441Z,7.20
2018-09-18T19:43:58.308Z,6.77
2018-09-18T19:46:26.766Z,6.50
2018-09-18T19:48:55.208Z,7.03
2018-09-18T19:51:24.967Z,6.73
2018-09-18T19:53:53.561Z,10.63
2018-09-18T19:56:25.267Z,7.37
2018-09-18T19:58:54.338Z,6.73
2018-09-18T20:01:23.884Z,6.70
2018-09-18T20:03:56.274Z,9.20
2018-09-18T20:06:26.059Z,7.10
2018-09-18T20:08:58.154Z,9.63
2018-09-18T20:11:26.787Z,7.40
2018-09-18T20:13:56.553Z,6.90
2018-09-18T20:16:25.043Z,7.17
2018-09-18T20:18:54.715Z,7.00
2018-09-18T20:21:23.300Z,8.13
2018-09-18T20:23:55.452Z,6.77
2018-09-18T20:26:28.272Z,7.73
2018-09-18T20:29:00.000Z,7.13
2018-09-18T20:31:28.472Z,7.33
2018-09-18T20:33:57.568Z,9.40
2018-09-18T20:36:26.534Z,9.87
2018-09-18T20:38:54.988Z,7.23
2018-09-18T20:41:23.544Z,8.00
2018-09-18T20:43:51.888Z,7.00
2018-09-18T20:46:20.280Z,8.67
2018-09-18T20:48:48.881Z,7.67
2018-09-18T20:51:17.318Z,7.00
2018-09-18T20:53:45.851Z,8.93
2018-09-18T20:56:14.364Z,9.10
2018-09-18T20:58:42.920Z,7.73
2018-09-18T21:01:11.324Z,9.47
2018-09-18T21:03:39.661Z,7.30
2018-09-18T21:06:08.216Z,8.50
2018-09-18T21:08:36.561Z,6.87
2018-09-18T21:11:04.890Z,6.83
2018-09-18T21:13:33.354Z,7.80
2018-09-18T21:16:01.743Z,8.17
2018-09-18T21:18:30.462Z,8.30
2018-09-18T21:20:58.896Z,8.23
2018-09-18T21:23:27.142Z,9.43
2018-09-18T21:25:57.669Z,7.13
2018-09-18T21:28:26.222Z,8.63
2018-09-18T21:30:54.600Z,7.50
2018-09-18T21:33:22.982Z,8.40
2018-09-18T21:35:51.402Z,7.57
2018-09-18T21:38:19.709Z,8.60
2018-09-18T21:40:48.201Z,7.60
2018-09-18T21:43:17.000Z,8.60
2018-09-18T21:45:45.693Z,12.00
2018-09-18T21:48:14.012Z,7.53
2018-09-18T21:50:42.543Z,8.63
2018-09-18T21:53:12.633Z,9.07
2018-09-18T21:55:41.343Z,10.60
2018-09-18T21:58:09.580Z,9.63
2018-09-18T22:00:38.221Z,11.00
2018-09-18T22:03:06.580Z,10.73
2018-09-18T22:05:34.957Z,10.33
2018-09-18T22:08:03.381Z,11.27
2018-09-18T22:10:31.702Z,12.93
2018-09-18T22:13:00.981Z,9.27
2018-09-18T22:15:29.981Z,11.87
2018-09-18T22:17:58.380Z,9.20
2018-09-18T22:20:26.661Z,11.93
2018-09-18T22:22:54.944Z,10.00
2018-09-18T22:25:23.892Z,8.50
2018-09-18T22:27:52.522Z,7.83
2018-09-18T22:30:20.841Z,9.30
2018-09-18T22:32:49.281Z,8.27
2018-09-18T22:35:17.612Z,7.77
2018-09-18T22:37:45.863Z,9.10
2018-09-18T22:40:14.171Z,8.37
2018-09-18T22:42:42.434Z,9.70
2018-09-18T22:45:10.724Z,8.20
2018-09-18T22:47:39.105Z,9.67
2018-09-18T22:50:07.421Z,8.63
2018-09-18T22:52:35.741Z,8.60
2018-09-18T22:55:04.211Z,7.27
2018-09-18T22:57:32.619Z,7.60
2018-09-18T23:00:00.851Z,7.83
2018-09-18T23:02:29.215Z,9.37
2018-09-18T23:04:57.526Z,9.77
2018-09-18T23:07:25.805Z,6.87
2018-09-18T23:09:54.155Z,9.23
2018-09-18T23:12:22.350Z,7.10
2018-09-18T23:14:50.630Z,7.87
2018-09-18T23:17:18.910Z,9.40
2018-09-18T23:19:47.050Z,7.77
2018-09-18T23:22:15.320Z,9.07
2018-09-18T23:24:43.631Z,8.77
2018-09-18T23:27:11.930Z,6.80
2018-09-18T23:29:40.183Z,7.97
2018-09-18T23:32:08.488Z,7.63
2018-09-18T23:34:36.890Z,6.20
2018-09-18T23:37:05.238Z,6.83
2018-09-18T23:39:33.833Z,8.17
2018-09-18T23:42:02.034Z,8.20
2018-09-18T23:44:30.194Z,7.67
2018-09-18T23:46:58.515Z,8.37
2018-09-18T23:49:26.774Z,6.97
2018-09-18T23:51:54.972Z,7.13
2018-09-18T23:54:23.282Z,7.37
2018-09-18T23:56:51.528Z,7.03
2018-09-18T23:59:19.744Z,8.57
